Time;durP1;ratioP1;P1;durP2;ratioP2;P2;SDS_P1;SDS_P2;PMS_P1;PMS_P2;Temp;Humidity;BMP_temperature;BMP_pressure;BME280_temperature;BME280_humidity;BME280_pressure;Samples;Min_cycle;Max_cycle;Signal;HPM_P1;HPM_P2
2023/01/26 00:00:46;;;;;;;23.53;15.77;;;;;;;-1.79;93.83;101457.72;5065591;28;20252;-79
2023/01/26 00:03:12;;;;;;;24.83;15.63;;;;;;;-2.43;96.31;101415.44;5065415;28;20202;-78
2023/01/26 00:05:39;;;;;;;28.77;17.23;;;;;;;-2.23;97.44;101367.81;5046540;28;20202;-79
2023/01/26 00:08:07;;;;;;;28.80;15.67;;;;;;;-1.98;97.60;101343.41;5047289;28;20249;-79
2023/01/26 00:10:36;;;;;;;24.50;15.73;;;;;;;-1.72;96.97;101341.19;5046627;28;20240;-80
2023/01/26 00:13:03;;;;;;;27.13;16.03;;;;;;;-1.50;96.11;101361.81;5058721;28;20277;-80
2023/01/26 00:15:31;;;;;;;25.93;15.10;;;;;;;-1.63;93.56;101392.78;5066869;28;20209;-79
2023/01/26 00:17:57;;;;;;;26.90;15.93;;;;;;;-1.70;93.77;101406.97;5066508;28;20226;-79
2023/01/26 00:20:24;;;;;;;26.20;14.93;;;;;;;-1.97;93.47;101418.47;5066133;28;20202;-79
2023/01/26 00:22:50;;;;;;;24.33;14.20;;;;;;;-1.91;93.52;101424.75;5066516;28;20259;-79
2023/01/26 00:25:17;;;;;;;23.20;14.10;;;;;;;-1.87;93.65;101416.41;5066458;28;20210;-79
2023/01/26 00:27:44;;;;;;;23.70;15.00;;;;;;;-1.74;93.84;101417.88;5066186;28;20274;-79
2023/01/26 00:30:11;;;;;;;25.47;14.97;;;;;;;-1.73;93.44;101414.50;5065547;28;20248;-79
2023/01/26 00:32:38;;;;;;;30.70;17.13;;;;;;;-1.64;93.28;101420.06;5065650;28;20205;-80
2023/01/26 00:35:06;;;;;;;27.67;15.10;;;;;;;-1.88;92.52;101431.72;5064260;28;20206;-79
2023/01/26 00:37:35;;;;;;;31.53;16.87;;;;;;;-1.88;92.68;101434.28;5066314;28;20477;-79
2023/01/26 00:40:01;;;;;;;24.87;14.97;;;;;;;-2.15;92.33;101442.38;5062995;28;20209;-78
2023/01/26 00:42:28;;;;;;;26.90;14.57;;;;;;;-1.88;92.85;101445.38;5054150;28;20206;-78
2023/01/26 00:44:55;;;;;;;29.27;16.33;;;;;;;-2.02;92.69;101444.72;5026503;28;20233;-79
2023/01/26 00:47:22;;;;;;;31.40;15.97;;;;;;;-1.77;92.73;101439.91;5026400;28;20214;-79
2023/01/26 00:49:48;;;;;;;39.00;17.27;;;;;;;-1.78;93.07;101431.34;5025932;28;20257;-78
2023/01/26 00:52:15;;;;;;;36.03;17.87;;;;;;;-1.71;93.21;101417.16;5026261;28;20265;-80
2023/01/26 00:54:41;;;;;;;42.93;19.27;;;;;;;-1.78;92.94;101425.31;5026222;28;20532;-78
2023/01/26 00:57:07;;;;;;;41.90;18.23;;;;;;;-2.02;93.77;101410.59;5022857;28;20210;-79
2023/01/26 00:59:34;;;;;;;41.97;18.53;;;;;;;-2.10;94.57;101392.31;5024903;28;20281;-78
2023/01/26 01:02:02;;;;;;;44.80;19.30;;;;;;;-1.91;95.00;101375.28;5024810;28;20203;-79
2023/01/26 01:04:29;;;;;;;45.77;18.83;;;;;;;-1.65;94.93;101354.31;5025740;28;20217;-78
2023/01/26 01:06:56;;;;;;;41.83;18.90;;;;;;;-1.44;94.48;101361.22;5024692;28;20305;-78
2023/01/26 01:09:22;;;;;;;38.37;19.10;;;;;;;-1.80;94.08;101385.22;5024787;28;20297;-78
2023/01/26 01:11:48;;;;;;;48.93;19.97;;;;;;;-2.07;94.15;101374.53;5049267;28;20269;-77
2023/01/26 01:14:15;;;;;;;47.07;20.67;;;;;;;-2.02;94.30;101367.97;5058170;28;20206;-78
2023/01/26 01:16:44;;;;;;;56.93;20.67;;;;;;;-2.29;95.09;101352.19;5064100;28;20201;-78
2023/01/26 01:19:13;;;;;;;51.47;21.63;;;;;;;-2.15;95.86;101328.97;5063119;28;20571;-79
2023/01/26 01:21:40;;;;;;;48.40;20.90;;;;;;;-2.22;96.26;101315.88;5062797;28;20209;-78
2023/01/26 01:24:07;;;;;;;54.63;20.20;;;;;;;-1.97;96.27;101304.22;5063306;28;20618;-79
2023/01/26 01:26:33;;;;;;;48.00;20.80;;;;;;;-1.69;95.77;101296.09;5062868;28;20209;-78
2023/01/26 01:29:00;;;;;;;51.10;19.83;;;;;;;-1.67;94.76;101302.16;5062140;28;20225;-78
2023/01/26 01:31:28;;;;;;;46.70;21.00;;;;;;;-1.72;94.48;101321.56;5062617;28;20263;-78
2023/01/26 01:33:54;;;;;;;57.70;23.93;;;;;;;-1.98;94.17;101339.97;5061964;28;20240;-78
2023/01/26 01:36:22;;;;;;;51.60;21.53;;;;;;;-1.92;94.21;101335.13;5062211;28;20727;-78
2023/01/26 01:38:50;;;;;;;54.80;22.57;;;;;;;-1.90;94.02;101338.63;5061396;28;20217;-78
2023/01/26 01:41:19;;;;;;;50.67;22.37;;;;;;;-1.76;94.20;101341.81;5055298;28;20669;-79
2023/01/26 01:43:46;;;;;;;53.17;23.03;;;;;;;-1.95;93.76;101352.91;5053185;28;20218;-78
2023/01/26 01:46:18;;;;;;;69.27;24.70;;;;;;;-1.78;93.80;101339.22;5061187;28;20232;-78
2023/01/26 01:48:52;;;;;;;58.10;23.93;;;;;;;-1.55;94.10;101331.69;5061264;28;20636;-78
2023/01/26 01:51:21;;;;;;;65.03;24.50;;;;;;;-1.60;92.94;101346.84;5056222;28;20715;-78
2023/01/26 01:53:51;;;;;;;68.80;24.23;;;;;;;-1.46;92.94;101350.03;5052862;28;20206;-78
2023/01/26 01:56:21;;;;;;;64.93;24.80;;;;;;;-1.54;92.31;101366.75;5061716;28;20202;-78
2023/01/26 01:58:51;;;;;;;59.83;24.60;;;;;;;-1.37;92.27;101368.34;5058598;28;20240;-78
2023/01/26 02:01:18;;;;;;;67.77;24.70;;;;;;;-1.38;91.68;101381.09;5059794;28;20552;-78
2023/01/26 02:03:48;;;;;;;64.33;24.90;;;;;;;-1.30;91.62;101378.06;5060393;28;20735;-78
2023/01/26 02:06:19;;;;;;;65.00;23.60;;;;;;;-1.14;92.10;101379.63;5061133;28;20213;-78
2023/01/26 02:08:50;;;;;;;71.30;25.80;;;;;;;-0.99;91.71;101379.41;5060820;28;20225;-79
2023/01/26 02:11:21;;;;;;;63.87;25.90;;;;;;;-0.91;91.56;101379.72;5061292;28;20229;-78
2023/01/26 02:13:48;;;;;;;69.90;24.87;;;;;;;-0.79;90.91;101393.09;5061667;28;20247;-78
2023/01/26 02:16:15;;;;;;;73.70;27.30;;;;;;;-0.86;89.64;101409.88;5061812;28;20271;-79
2023/01/26 02:18:42;;;;;;;77.73;28.07;;;;;;;-1.02;89.29;101427.94;5061359;28;20247;-78
2023/01/26 02:21:11;;;;;;;71.20;27.17;;;;;;;-1.00;89.55;101434.88;5057375;28;20201;-78
2023/01/26 02:23:50;;;;;;;87.27;29.47;;;;;;;-0.95;89.68;101432.56;5053028;28;20259;-78
2023/01/26 02:26:19;;;;;;;81.30;26.50;;;;;;;-0.80;89.59;101432.31;5060803;28;20205;-78
2023/01/26 02:28:46;;;;;;;77.43;28.27;;;;;;;-0.90;89.31;101433.59;5060341;28;20657;-78
2023/01/26 02:31:14;;;;;;;80.40;27.80;;;;;;;-0.77;89.57;101436.69;5060408;28;20226;-78
2023/01/26 02:33:41;;;;;;;76.53;26.13;;;;;;;-0.73;89.61;101431.78;5060199;28;20202;-78
2023/01/26 02:36:17;;;;;;;79.47;26.93;;;;;;;-0.86;88.15;101450.88;5058936;28;20213;-78
2023/01/26 02:38:51;;;;;;;68.87;26.27;;;;;;;-0.98;89.12;101465.72;5054576;28;20319;-78
2023/01/26 02:43:59;;;;;;;64.50;24.27;;;;;;;-0.80;89.02;101453.69;5057649;28;20659;-77
2023/01/26 02:46:26;;;;;;;65.00;26.17;;;;;;;-0.74;88.96;101452.22;5058330;28;20210;-78
2023/01/26 02:51:37;;;;;;;69.10;24.23;;;;;;;-0.71;88.89;101453.25;5052824;28;20660;-78
2023/01/26 02:54:03;;;;;;;61.07;23.17;;;;;;;-0.85;88.19;101465.47;5052533;28;20259;-78
2023/01/26 02:56:30;;;;;;;52.47;21.00;;;;;;;-1.06;88.55;101472.19;5060621;28;20217;-76
2023/01/26 02:58:56;;;;;;;61.07;22.20;;;;;;;-0.89;89.19;101458.44;5060404;28;20272;-77
2023/01/26 03:01:23;;;;;;;52.67;19.97;;;;;;;-0.80;89.21;101445.13;5060779;28;20197;-78
2023/01/26 03:03:49;;;;;;;63.37;22.47;;;;;;;-0.66;89.59;101430.34;5061736;28;20201;-77
2023/01/26 03:06:17;;;;;;;50.30;20.87;;;;;;;-0.61;89.19;101432.31;5061484;28;20206;-78
2023/01/26 03:08:43;;;;;;;53.00;21.77;;;;;;;-0.53;88.56;101431.78;5061847;28;20226;-77
2023/01/26 03:11:10;;;;;;;60.53;20.80;;;;;;;-0.49;88.53;101442.22;5061054;28;20222;-78
2023/01/26 03:13:37;;;;;;;52.00;19.93;;;;;;;-0.43;87.89;101441.59;5066723;28;20205;-78
2023/01/26 03:16:06;;;;;;;44.97;19.03;;;;;;;-0.44;88.39;101444.97;5066999;28;20266;-79
2023/01/26 03:29:48;;;;;;;41.70;17.77;;;;;;;-0.39;88.61;101440.91;5002451;28;20661;-79
2023/01/26 03:32:15;;;;;;;32.53;15.90;;;;;;;-0.35;88.47;101440.22;5003513;28;20221;-78
2023/01/26 03:34:41;;;;;;;33.53;16.23;;;;;;;-0.30;88.20;101442.97;5029955;28;20252;-79
2023/01/26 03:37:08;;;;;;;29.43;14.40;;;;;;;-0.32;87.90;101445.47;5064945;28;20631;-78
2023/01/26 03:56:16;;;;;;;27.57;14.57;;;;;;;-0.19;86.93;101480.22;5064860;28;20346;-78
2023/01/26 03:58:43;;;;;;;33.13;14.87;;;;;;;-0.18;87.23;101478.53;5065967;28;20314;-78
2023/01/26 04:01:18;;;;;;;34.17;13.93;;;;;;;-0.13;87.21;101484.72;5065854;28;20202;-78
2023/01/26 04:09:14;;;;;;;65.03;22.90;;;;;;;-0.83;90.26;101410.00;5060425;28;20223;-78
2023/01/26 04:11:40;;;;;;;53.50;21.43;;;;;;;-0.71;91.13;101370.34;5060231;28;20231;-77
2023/01/26 04:22:24;;;;;;;66.10;22.67;;;;;;;-0.50;91.67;101319.03;5049284;28;20213;-78
2023/01/26 04:24:51;;;;;;;68.17;23.00;;;;;;;-0.42;91.09;101317.66;5059824;28;20233;-78
2023/01/26 04:27:17;;;;;;;68.27;24.43;;;;;;;-0.30;91.21;101318.13;5060615;28;20210;-78
2023/01/26 04:29:43;;;;;;;56.03;22.67;;;;;;;-0.28;90.23;101319.09;5060452;28;20234;-77
2023/01/26 04:32:11;;;;;;;64.17;21.83;;;;;;;-0.29;90.34;101325.03;5059854;28;20695;-77
2023/01/26 04:34:37;;;;;;;60.53;22.53;;;;;;;-0.19;89.87;101333.09;5060463;28;20612;-78
2023/01/26 04:37:04;;;;;;;56.93;21.83;;;;;;;-0.14;89.66;101337.59;5060304;28;20201;-77
2023/01/26 04:39:30;;;;;;;65.93;22.10;;;;;;;-0.12;89.74;101337.63;5060616;28;20241;-77
2023/01/26 04:41:57;;;;;;;56.43;20.73;;;;;;;-0.12;89.63;101340.19;5060692;28;20251;-78
2023/01/26 04:44:23;;;;;;;62.80;21.97;;;;;;;-0.32;89.68;101335.16;5060496;28;20206;-78
2023/01/26 04:46:50;;;;;;;69.63;26.30;;;;;;;-0.26;90.02;101335.44;5060305;28;20235;-78
2023/01/26 04:49:17;;;;;;;63.00;21.77;;;;;;;-0.49;90.57;101331.06;5059591;28;20231;-78
2023/01/26 04:51:44;;;;;;;63.20;20.93;;;;;;;-0.72;91.28;101323.28;5053529;28;20242;-77
2023/01/26 04:54:10;;;;;;;71.47;21.93;;;;;;;-0.65;91.94;101302.25;5053328;28;20259;-78
2023/01/26 04:56:36;;;;;;;61.60;21.33;;;;;;;-0.57;91.94;101287.16;5059429;28;20617;-78
2023/01/26 04:59:05;;;;;;;61.07;22.47;;;;;;;-0.80;92.62;101268.28;5059467;28;20230;-78
2023/01/26 05:01:32;;;;;;;60.20;20.83;;;;;;;-0.60;92.79;101258.81;5058641;28;20611;-78
2023/01/26 05:03:59;;;;;;;62.27;22.13;;;;;;;-0.53;93.40;101242.88;5059055;28;20201;-78
2023/01/26 05:06:27;;;;;;;65.37;22.33;;;;;;;-0.57;93.37;101241.00;5060011;28;20682;-78
2023/01/26 05:08:53;;;;;;;63.77;21.53;;;;;;;-0.64;92.88;101223.63;5059379;28;20244;-78
2023/01/26 05:11:20;;;;;;;68.80;22.97;;;;;;;-0.65;93.42;101209.06;5041781;28;20259;-78
2023/01/26 05:13:47;;;;;;;66.43;22.47;;;;;;;-0.51;93.84;101196.78;5040237;28;20210;-78
2023/01/26 05:16:14;;;;;;;66.93;22.43;;;;;;;-0.48;93.08;101196.88;5040053;28;20208;-78
2023/01/26 05:18:40;;;;;;;59.17;21.57;;;;;;;-0.41;94.00;101198.88;5040332;28;20272;-78
2023/01/26 05:21:08;;;;;;;60.30;22.90;;;;;;;-0.32;92.89;101204.34;5044759;28;20206;-78
2023/01/26 05:23:35;;;;;;;70.17;23.53;;;;;;;-0.34;92.72;101220.50;5052745;28;20214;-78
2023/01/26 05:26:02;;;;;;;64.50;22.20;;;;;;;-0.34;92.87;101217.94;5060879;28;20276;-78
2023/01/26 05:28:28;;;;;;;59.33;22.40;;;;;;;-0.32;93.02;101219.72;5061525;28;20225;-77
2023/01/26 05:30:55;;;;;;;67.93;23.37;;;;;;;-0.38;93.15;101221.19;5060386;28;20226;-77
2023/01/26 05:33:21;;;;;;;67.07;20.03;;;;;;;-0.60;94.00;101217.81;5060978;28;20283;-78
2023/01/26 05:35:48;;;;;;;50.03;19.33;;;;;;;-0.74;94.40;101208.69;5060088;28;20708;-78
2023/01/26 05:38:14;;;;;;;75.03;22.07;;;;;;;-0.56;94.81;101180.34;5060329;28;20228;-78
2023/01/26 05:40:42;;;;;;;62.47;21.00;;;;;;;-0.50;94.52;101183.13;5078769;22;20220;-81
2023/01/26 05:43:08;;;;;;;59.90;20.63;;;;;;;-0.63;95.02;101174.13;5089356;28;20201;-81
2023/01/26 05:45:35;;;;;;;65.67;22.20;;;;;;;-0.74;95.61;101170.25;5097444;28;20237;-82
2023/01/26 05:48:01;;;;;;;71.03;21.93;;;;;;;-1.03;95.77;101162.28;5097379;28;20228;-81
2023/01/26 05:50:28;;;;;;;59.70;20.07;;;;;;;-0.82;96.53;101144.31;5097445;28;20704;-82
2023/01/26 05:52:55;;;;;;;69.17;21.90;;;;;;;-0.64;96.59;101136.47;5099256;28;20741;-81
2023/01/26 05:55:21;;;;;;;67.77;22.80;;;;;;;-0.50;96.11;101134.41;5093481;28;20574;-81
2023/01/26 05:57:49;;;;;;;77.83;25.07;;;;;;;-0.86;95.83;101152.72;5085161;28;20202;-81
2023/01/26 06:00:16;;;;;;;64.63;22.83;;;;;;;-0.84;96.58;101140.81;5075705;28;20665;-81
2023/01/26 06:02:43;;;;;;;75.83;24.60;;;;;;;-1.14;96.91;101151.63;5075725;28;20204;-81
2023/01/26 06:05:10;;;;;;;86.70;26.00;;;;;;;-1.02;97.88;101117.94;5076238;28;20491;-81
2023/01/26 06:07:37;;;;;;;84.93;26.30;;;;;;;-1.50;99.92;101090.44;5076984;28;20635;-81
2023/01/26 06:10:04;;;;;;;88.10;26.17;;;;;;;-1.56;100.00;101062.03;5076163;28;20200;-81
2023/01/26 06:12:34;;;;;;;88.00;25.40;;;;;;;-1.77;100.00;101022.78;5076217;28;20229;-81
2023/01/26 06:15:02;;;;;;;92.97;26.07;;;;;;;-1.73;100.00;100991.38;5075454;28;20215;-81
2023/01/26 06:17:28;;;;;;;104.07;29.27;;;;;;;-1.81;100.00;100979.13;5076205;28;20197;-81
2023/01/26 06:19:54;;;;;;;106.17;28.30;;;;;;;-1.85;100.00;100964.47;5076868;28;20305;-81
2023/01/26 06:22:21;;;;;;;106.37;27.03;;;;;;;-1.72;100.00;100949.63;5076042;28;20212;-81
2023/01/26 06:24:47;;;;;;;92.23;27.00;;;;;;;-1.45;100.00;100947.22;5078845;28;20236;-81
2023/01/26 06:27:15;;;;;;;104.97;27.53;;;;;;;-1.34;100.00;100942.53;5088380;28;20616;-82
2023/01/26 06:29:43;;;;;;;101.20;26.77;;;;;;;-1.18;100.00;100955.09;5087032;28;20278;-81
2023/01/26 06:32:12;;;;;;;101.50;27.87;;;;;;;-1.15;100.00;100970.59;5076381;28;20779;-81
2023/01/26 06:34:38;;;;;;;115.60;29.33;;;;;;;-1.15;100.00;100983.38;5076230;28;20208;-82
2023/01/26 06:37:06;;;;;;;97.83;27.50;;;;;;;-1.21;100.00;100999.41;5073643;28;20204;-81
2023/01/26 06:39:32;;;;;;;88.97;25.70;;;;;;;-1.18;100.00;101002.88;5075341;28;20710;-81
2023/01/26 06:41:59;;;;;;;84.93;24.93;;;;;;;-1.26;100.00;101007.72;5075079;28;20209;-81
2023/01/26 06:44:25;;;;;;;103.87;28.67;;;;;;;-1.01;100.00;101002.69;5074375;28;20270;-81
2023/01/26 06:46:51;;;;;;;94.87;28.03;;;;;;;-1.03;100.00;101006.00;5075130;28;20258;-81
2023/01/26 06:49:19;;;;;;;97.07;27.40;;;;;;;-1.00;100.00;101021.50;5073817;28;20229;-81
2023/01/26 06:51:53;;;;;;;93.87;25.00;;;;;;;-0.86;100.00;101027.13;5074782;28;20783;-81
2023/01/26 06:54:19;;;;;;;88.60;27.27;;;;;;;-0.71;100.00;101026.84;5076227;28;20214;-82
2023/01/26 06:56:45;;;;;;;93.17;26.70;;;;;;;-0.86;100.00;101042.50;5088969;28;20208;-82
2023/01/26 06:59:13;;;;;;;88.97;27.10;;;;;;;-0.82;100.00;101045.22;5097817;28;20302;-81
2023/01/26 07:01:43;;;;;;;80.53;25.67;;;;;;;-0.72;100.00;101051.56;5096397;28;20204;-81
2023/01/26 07:04:09;;;;;;;95.30;27.97;;;;;;;-0.54;100.00;101060.75;5095691;28;20204;-81
2023/01/26 07:06:37;;;;;;;85.07;25.17;;;;;;;-0.44;100.00;101081.69;5095154;28;20269;-81
2023/01/26 07:09:03;;;;;;;79.20;25.50;;;;;;;-0.41;100.00;101083.47;5095030;28;20224;-82
2023/01/26 07:11:31;;;;;;;85.63;26.87;;;;;;;-0.51;99.55;101091.66;5094923;28;20653;-82
2023/01/26 07:13:58;;;;;;;80.03;26.37;;;;;;;-0.56;100.00;101103.41;5096867;28;20299;-82
2023/01/26 07:16:24;;;;;;;87.77;26.60;;;;;;;-0.47;100.00;101104.63;5096958;28;20230;-81
2023/01/26 07:18:52;;;;;;;89.50;25.57;;;;;;;-0.61;99.21;101106.69;5097115;28;20228;-82
2023/01/26 07:21:21;;;;;;;83.43;25.60;;;;;;;-0.48;99.16;101114.81;5096653;28;20200;-81
2023/01/26 07:23:50;;;;;;;82.70;25.80;;;;;;;-0.34;99.34;101107.63;5097605;28;20215;-81
2023/01/26 07:26:17;;;;;;;71.97;25.17;;;;;;;-0.25;99.27;101120.81;5087484;28;20545;-82
2023/01/26 07:28:43;;;;;;;76.50;24.93;;;;;;;-0.15;98.67;101129.69;5096840;28;20222;-81
2023/01/26 07:31:10;;;;;;;73.43;25.33;;;;;;;-0.22;97.91;101146.53;5098173;28;20689;-81
2023/01/26 07:33:37;;;;;;;82.47;25.40;;;;;;;-0.12;97.07;101158.03;5098263;28;20214;-83
2023/01/26 07:36:04;;;;;;;66.83;23.97;;;;;;;-0.24;96.76;101177.31;5099644;28;20209;-83
2023/01/26 07:38:32;;;;;;;64.23;22.97;;;;;;;-0.26;97.20;101178.03;5098532;28;20224;-85
2023/01/26 07:41:06;;;;;;;70.30;24.10;;;;;;;-0.13;97.13;101182.81;5099518;28;20678;-77
2023/01/26 07:43:33;;;;;;;74.43;24.43;;;;;;;-0.11;96.28;101182.88;5096505;28;20193;-78
2023/01/26 07:46:06;;;;;;;61.57;22.43;;;;;;;-0.04;96.82;101188.28;5108506;28;20271;-85
2023/01/26 07:48:33;;;;;;;63.07;22.63;;;;;;;-0.01;96.50;101196.09;5099652;28;20230;-84
2023/01/26 07:51:01;;;;;;;63.23;22.13;;;;;;;0.04;95.68;101211.66;5105469;28;20232;-86
2023/01/26 07:53:28;;;;;;;55.73;21.57;;;;;;;0.13;95.39;101218.81;5106079;28;20204;-86
2023/01/26 07:56:04;;;;;;;62.40;22.63;;;;;;;0.18;94.95;101232.72;5098768;28;20201;-78
2023/01/26 07:58:34;;;;;;;65.05;25.80;;;;;;;0.06;94.30;101251.09;5096000;28;20485;-80
2023/01/26 08:01:07;;;;;;;58.27;23.03;;;;;;;-0.03;94.93;101256.75;5102116;28;20200;-83
2023/01/26 08:03:35;;;;;;;63.53;24.10;;;;;;;0.12;95.11;101256.44;5101591;28;20188;-82
2023/01/26 08:06:02;;;;;;;63.70;22.83;;;;;;;0.13;94.54;101258.19;5102240;28;20212;-82
2023/01/26 08:08:28;;;;;;;66.23;23.20;;;;;;;0.21;94.34;101253.34;5099881;28;20246;-80
2023/01/26 08:10:56;;;;;;;55.30;22.37;;;;;;;0.21;94.51;101273.88;5096830;28;20204;-79
2023/01/26 08:13:23;;;;;;;63.70;23.03;;;;;;;0.27;94.36;101266.41;5096567;28;20232;-77
2023/01/26 08:15:51;;;;;;;57.10;23.20;;;;;;;0.29;93.42;101274.16;5096478;28;20208;-80
2023/01/26 08:18:17;;;;;;;59.93;23.47;;;;;;;0.32;93.88;101287.13;5097782;28;20239;-79
2023/01/26 08:20:49;;;;;;;60.63;23.13;;;;;;;0.32;93.15;101298.25;5097053;28;20205;-82
2023/01/26 08:23:16;;;;;;;58.20;24.23;;;;;;;0.39;93.42;101309.63;5098764;28;20237;-83
2023/01/26 08:25:42;;;;;;;63.27;22.03;;;;;;;0.42;93.22;101312.31;5094169;28;20204;-83
2023/01/26 08:28:08;;;;;;;52.00;21.00;;;;;;;0.29;92.08;101328.06;5091568;28;20261;-83
2023/01/26 08:30:35;;;;;;;55.53;22.03;;;;;;;0.37;92.03;101326.66;5096744;28;20207;-83
2023/01/26 08:33:03;;;;;;;56.83;22.53;;;;;;;0.32;92.18;101328.22;5096955;28;20238;-82
2023/01/26 08:35:31;;;;;;;59.10;21.57;;;;;;;-0.25;93.67;101336.28;5097078;28;20265;-82
2023/01/26 08:37:57;;;;;;;69.23;24.20;;;;;;;-0.35;94.20;101311.09;5096276;28;20285;-82
2023/01/26 08:40:24;;;;;;;57.00;22.30;;;;;;;-0.08;94.86;101276.25;5097230;28;20288;-82
2023/01/26 08:42:50;;;;;;;66.30;24.13;;;;;;;-0.28;95.37;101270.34;5097553;28;20200;-83
2023/01/26 08:45:17;;;;;;;61.97;23.23;;;;;;;-0.45;96.14;101256.88;5097576;28;20233;-82
2023/01/26 08:47:44;;;;;;;62.63;22.83;;;;;;;-0.19;96.13;101226.22;5097049;28;20204;-82
2023/01/26 08:50:12;;;;;;;64.90;23.63;;;;;;;0.01;96.25;101223.50;5096916;28;20325;-83
2023/01/26 08:52:38;;;;;;;61.77;22.90;;;;;;;0.18;96.02;101225.00;5098190;28;20289;-82
2023/01/26 08:55:06;;;;;;;52.33;21.37;;;;;;;0.14;94.61;101225.69;5096022;28;20204;-83
2023/01/26 08:57:32;;;;;;;56.00;22.83;;;;;;;-0.13;94.49;101262.34;5089437;28;20202;-83
2023/01/26 08:59:58;;;;;;;57.47;22.53;;;;;;;-0.47;95.17;101262.75;5100373;28;20660;-82
2023/01/26 09:02:25;;;;;;;66.50;23.57;;;;;;;-0.39;96.14;101239.97;5097190;28;20204;-83
2023/01/26 09:04:52;;;;;;;61.07;23.37;;;;;;;-0.19;96.93;101220.22;5097041;28;20204;-83
2023/01/26 09:07:19;;;;;;;59.40;25.60;;;;;;;-0.34;97.15;101212.78;5096887;28;20265;-83
2023/01/26 09:09:46;;;;;;;65.40;26.30;;;;;;;-0.19;96.92;101203.13;5097053;28;20250;-81
2023/01/26 09:12:12;;;;;;;59.80;25.13;;;;;;;-0.28;96.80;101200.19;5094857;28;20273;-81
2023/01/26 09:14:40;;;;;;;55.00;25.17;;;;;;;-0.13;97.33;101192.22;5094435;28;20743;-81
2023/01/26 09:17:06;;;;;;;57.13;25.87;;;;;;;-0.11;97.36;101188.88;5095716;28;20241;-82
2023/01/26 09:19:33;;;;;;;58.77;25.07;;;;;;;-0.14;97.37;101182.75;5095784;28;20281;-82
2023/01/26 09:21:59;;;;;;;56.53;25.40;;;;;;;-0.17;97.17;101183.53;5097145;28;20201;-81
2023/01/26 09:24:27;;;;;;;60.03;25.43;;;;;;;-0.03;97.84;101181.47;5095647;28;20201;-82
2023/01/26 09:26:53;;;;;;;56.57;25.77;;;;;;;0.15;97.95;101179.53;5087374;28;20216;-82
2023/01/26 09:29:20;;;;;;;55.63;26.67;;;;;;;0.36;97.11;101181.13;5091056;28;20212;-83
2023/01/26 09:31:46;;;;;;;64.20;26.43;;;;;;;0.58;96.91;101187.88;5067244;28;20248;-82
2023/01/26 09:34:13;;;;;;;54.10;24.13;;;;;;;0.63;95.04;101200.84;5067998;28;20210;-83
2023/01/26 09:36:39;;;;;;;67.03;33.70;;;;;;;0.51;94.76;101225.28;5054725;28;20431;-79
2023/01/26 09:39:07;;;;;;;62.57;26.80;;;;;;;0.40;94.93;101236.91;5055286;28;20260;-79
2023/01/26 09:41:49;;;;;;;57.50;26.00;;;;;;;0.04;94.48;101244.13;5053904;28;20244;-79
2023/01/26 09:44:20;;;;;;;56.40;26.10;;;;;;;-0.21;96.46;101213.31;5055760;28;20339;-83
2023/01/26 09:47:02;;;;;;;60.27;26.57;;;;;;;-0.11;97.38;101194.00;5055706;28;20261;-80
2023/01/26 09:49:34;;;;;;;62.67;26.67;;;;;;;0.23;97.38;101184.09;5055176;28;20218;-82
2023/01/26 09:52:05;;;;;;;60.97;26.40;;;;;;;0.23;96.22;101186.66;5074981;28;20767;-80
2023/01/26 09:54:38;;;;;;;54.53;26.57;;;;;;;-0.26;97.30;101203.69;5077053;28;20249;-82
2023/01/26 09:57:13;;;;;;;62.40;26.47;;;;;;;-0.26;97.81;101178.94;5087512;28;20572;-81
2023/01/26 09:59:45;;;;;;;60.77;25.60;;;;;;;-0.08;97.51;101163.34;5095108;28;20215;-80
2023/01/26 10:02:26;;;;;;;61.87;28.07;;;;;;;-0.23;97.51;101168.78;5095565;28;20273;-81
2023/01/26 10:04:58;;;;;;;56.07;24.67;;;;;;;-0.18;97.58;101170.63;5096244;28;20208;-81
2023/01/26 10:07:24;;;;;;;55.40;24.73;;;;;;;-0.13;97.70;101162.28;5095055;28;20689;-79
2023/01/26 10:09:53;;;;;;;50.33;23.40;;;;;;;-0.49;98.05;101156.69;5095683;28;20224;-82
2023/01/26 10:12:24;;;;;;;57.17;25.33;;;;;;;-0.51;99.21;101135.25;5097390;28;20227;-81
2023/01/26 10:14:53;;;;;;;58.37;24.50;;;;;;;-0.42;99.57;101121.06;5095969;28;20204;-82
2023/01/26 10:17:27;;;;;;;55.97;24.63;;;;;;;-0.21;99.67;101108.13;5096607;28;20208;-83
2023/01/26 10:20:01;;;;;;;63.23;27.00;;;;;;;-0.23;98.11;101117.47;5096798;28;20231;-81
2023/01/26 10:22:40;;;;;;;57.73;24.17;;;;;;;-0.25;98.48;101131.94;5096754;28;20269;-82
2023/01/26 10:25:15;;;;;;;59.40;25.47;;;;;;;-0.16;98.63;101125.38;5076508;28;20209;-83
2023/01/26 10:27:44;;;;;;;62.83;26.60;;;;;;;-0.06;97.95;101132.56;5064602;28;20569;-82
2023/01/26 10:30:13;;;;;;;57.20;25.60;;;;;;;0.17;98.48;101136.81;5063786;28;20206;-79
2023/01/26 10:32:42;;;;;;;66.47;27.47;;;;;;;-0.05;97.66;101149.75;5066069;28;20682;-80
2023/01/26 10:35:16;;;;;;;56.90;26.60;;;;;;;-0.19;98.31;101151.81;5061297;28;20252;-77
2023/01/26 10:37:42;;;;;;;53.17;23.53;;;;;;;-0.27;99.00;101135.28;5063707;28;20721;-79
2023/01/26 10:40:10;;;;;;;59.50;26.27;;;;;;;-0.51;99.38;101125.84;5063960;28;20201;-78
2023/01/26 10:42:38;;;;;;;60.80;24.87;;;;;;;-0.38;100.00;101105.78;5066673;28;20197;-78
2023/01/26 10:45:23;;;;;;;64.20;26.90;;;;;;;-0.54;100.00;101092.38;5067023;28;20201;-77
2023/01/26 10:48:03;;;;;;;65.33;26.10;;;;;;;-0.28;100.00;101080.53;5064160;28;20678;-78
2023/01/26 10:50:30;;;;;;;57.80;24.37;;;;;;;-0.16;99.92;101074.94;5065221;28;20275;-79
2023/01/26 10:52:58;;;;;;;64.30;25.40;;;;;;;-0.10;99.58;101076.84;5068437;28;20232;-78
2023/01/26 10:55:25;;;;;;;63.80;30.73;;;;;;;-0.06;99.78;101079.59;5068380;28;20432;-78
2023/01/26 10:57:51;;;;;;;63.00;27.20;;;;;;;-0.11;99.02;101077.69;5066900;28;20209;-80
2023/01/26 11:00:28;;;;;;;59.03;25.63;;;;;;;0.07;99.15;101080.00;5063893;28;20248;-78
2023/01/26 11:02:59;;;;;;;59.60;25.87;;;;;;;0.25;99.68;101077.19;5071903;28;20203;-78
2023/01/26 11:05:26;;;;;;;55.23;25.17;;;;;;;-0.24;99.29;101087.50;5068191;28;20668;-80
2023/01/26 11:07:57;;;;;;;55.17;23.47;;;;;;;-0.14;99.46;101070.75;5071174;28;20200;-80
2023/01/26 11:10:30;;;;;;;55.63;24.83;;;;;;;-0.24;100.00;101071.22;5069870;28;20715;-79
2023/01/26 11:13:12;;;;;;;55.47;24.17;;;;;;;-0.06;100.00;101060.72;5079598;28;20315;-82
2023/01/26 11:15:41;;;;;;;57.67;25.98;;;;;;;-0.25;99.77;101060.09;5078246;28;20784;-77
2023/01/26 11:18:19;;;;;;;58.53;24.13;;;;;;;-0.06;99.83;101053.91;5077769;28;20246;-78
2023/01/26 11:20:53;;;;;;;46.40;24.70;;;;;;;-0.13;99.40;101062.22;5078211;28;20619;-79
2023/01/26 11:23:32;;;;;;;49.63;23.43;;;;;;;-0.26;99.91;101066.06;5079511;28;20254;-79
2023/01/26 11:26:17;;;;;;;56.50;24.80;;;;;;;0.06;99.64;101050.91;5087693;28;20665;-80
2023/01/26 11:28:58;;;;;;;53.80;23.60;;;;;;;0.31;100.00;101052.56;5096917;28;20226;-79
2023/01/26 11:31:39;;;;;;;53.23;23.67;;;;;;;0.01;99.11;101069.53;5099040;28;20208;-79
2023/01/26 11:34:20;;;;;;;54.97;23.00;;;;;;;0.02;99.08;101071.25;5098436;28;20223;-78
2023/01/26 11:36:55;;;;;;;57.30;25.80;;;;;;;0.18;99.37;101065.84;5092107;28;20246;-79
2023/01/26 11:39:28;;;;;;;49.60;25.73;;;;;;;0.28;98.97;101070.44;5078318;28;20235;-78
2023/01/26 11:42:10;;;;;;;55.40;24.00;;;;;;;0.44;97.44;101079.53;5077659;22;20648;-80
2023/01/26 11:45:06;;;;;;;49.97;23.30;;;;;;;0.46;97.32;101089.84;5056074;28;20284;-79
2023/01/26 11:47:48;;;;;;;57.57;25.40;;;;;;;0.44;97.69;101094.03;5055232;28;20198;-80
2023/01/26 11:50:34;;;;;;;51.07;22.90;;;;;;;0.16;97.09;101104.28;5036113;28;20947;-81
2023/01/26 11:53:19;;;;;;;43.80;21.73;;;;;;;0.34;98.04;101098.91;5017335;28;20223;-80
2023/01/26 11:55:58;;;;;;;46.30;20.60;;;;;;;0.27;97.39;101102.06;5013025;28;20208;-80
2023/01/26 11:58:33;;;;;;;43.37;22.13;;;;;;;0.09;98.07;101093.75;5012987;28;20227;-80
2023/01/26 12:01:02;;;;;;;45.30;21.70;;;;;;;0.24;98.93;101076.31;5015257;28;20218;-80
2023/01/26 12:03:44;;;;;;;41.80;19.80;;;;;;;0.51;98.99;101063.47;5012685;28;20200;-80